Kem'- Port, Russia
Current Conditions -  °F | °C
As of 1:50 AM on Sunday 21 Dec 2014 (Local Time) from EFKS Reporting Station
Light Snow Light Snow  
Wind Chill: 25°   Ceiling: 800
Heat Index: 25°   Visibility: 1.8mi
Dew Point: 25°   Wind: 2mph
Humidity: 100%   Direction: 20°NNE
Pressure: 28.88"   Gusts: NA
Location:  64.98°N, 34.8°E
Report Text: EFKS 202250Z AUTO 02002KT 2900 -SN BKN008 OVC033 M04/M04 Q0978
Loading
Personal Weather Stations






























Interactive Weather Map New forecast layout! Learn more

10-Day Weather Forecast

Advertisements
Track Severe Weather on mobile